createdAt,value
2018-12-06T00:00:43.986Z,9.93
2018-12-06T00:03:12.340Z,11.35
2018-12-06T00:05:40.553Z,9.05
2018-12-06T00:08:16.749Z,9.85
2018-12-06T00:10:45.006Z,11.65
2018-12-06T00:13:13.282Z,6.83
2018-12-06T00:15:41.512Z,8.03
2018-12-06T00:18:09.748Z,9.00
2018-12-06T00:20:37.907Z,7.50
2018-12-06T00:23:06.183Z,12.75
2018-12-06T00:25:34.467Z,9.10
2018-12-06T00:28:02.735Z,8.13
2018-12-06T00:30:45.764Z,7.72
2018-12-06T00:33:13.965Z,10.85
2018-12-06T00:35:42.203Z,8.90
2018-12-06T00:38:10.545Z,10.63
2018-12-06T00:40:38.795Z,9.08
2018-12-06T00:43:07.042Z,10.08
2018-12-06T00:45:35.315Z,7.75
2018-12-06T00:48:03.606Z,6.78
2018-12-06T00:50:31.877Z,12.90
2018-12-06T00:53:00.098Z,7.30
2018-12-06T00:55:28.368Z,6.10
2018-12-06T00:57:56.593Z,8.25
2018-12-06T01:00:24.818Z,9.03
2018-12-06T01:02:53.091Z,8.75
2018-12-06T01:05:21.357Z,12.63
2018-12-06T01:07:49.493Z,8.58
2018-12-06T01:10:17.808Z,10.60
2018-12-06T01:12:46.039Z,10.13
2018-12-06T01:15:14.303Z,7.95
2018-12-06T01:17:42.513Z,8.95
2018-12-06T01:20:10.730Z,8.00
2018-12-06T01:22:39.007Z,11.25
2018-12-06T01:25:07.262Z,7.80
2018-12-06T01:27:35.469Z,10.68
2018-12-06T01:30:03.958Z,8.43
2018-12-06T01:32:32.266Z,7.70
2018-12-06T01:35:00.511Z,7.97
2018-12-06T01:37:28.814Z,9.70
2018-12-06T01:39:57.178Z,6.40
2018-12-06T01:42:25.410Z,6.22
2018-12-06T01:44:53.582Z,8.60
2018-12-06T01:47:21.802Z,7.47
2018-12-06T01:49:49.992Z,9.95
2018-12-06T01:52:18.106Z,8.88
2018-12-06T01:54:46.337Z,8.00
2018-12-06T01:57:14.640Z,11.22
2018-12-06T01:59:42.879Z,7.35
2018-12-06T02:02:11.133Z,11.43
2018-12-06T02:04:39.391Z,7.00
2018-12-06T02:07:07.584Z,9.05
2018-12-06T02:09:35.844Z,9.25
2018-12-06T02:12:04.078Z,7.45
2018-12-06T02:14:32.328Z,10.63
2018-12-06T02:17:00.595Z,10.80
2018-12-06T02:19:28.870Z,7.92
2018-12-06T02:21:57.259Z,12.90
2018-12-06T02:24:25.506Z,8.63
2018-12-06T02:26:53.778Z,7.15
2018-12-06T02:29:21.954Z,7.37
2018-12-06T02:31:50.206Z,7.10
2018-12-06T02:34:18.428Z,6.83
2018-12-06T02:36:46.627Z,7.00
2018-12-06T02:39:14.907Z,5.30
2018-12-06T02:41:43.085Z,6.15
2018-12-06T02:44:11.506Z,9.43
2018-12-06T02:46:39.686Z,6.70
2018-12-06T02:49:07.951Z,7.75
2018-12-06T02:51:36.166Z,6.60
2018-12-06T02:54:04.399Z,5.65
2018-12-06T02:56:32.603Z,6.80
2018-12-06T02:59:00.868Z,6.53
2018-12-06T03:01:29.036Z,7.60
2018-12-06T03:03:57.200Z,15.00
2018-12-06T03:06:25.403Z,7.17
2018-12-06T03:08:53.607Z,4.22
2018-12-06T03:11:21.886Z,6.15
2018-12-06T03:13:50.279Z,7.47
2018-12-06T03:16:18.597Z,7.30
2018-12-06T03:18:46.753Z,5.60
2018-12-06T03:21:14.914Z,8.78
2018-12-06T03:23:43.175Z,7.72
2018-12-06T03:26:11.347Z,4.95
2018-12-06T03:28:39.576Z,8.35
2018-12-06T03:31:07.800Z,6.37
2018-12-06T03:33:36.099Z,5.97
2018-12-06T03:36:04.365Z,4.60
2018-12-06T03:38:32.539Z,6.50
2018-12-06T03:41:00.811Z,4.50
2018-12-06T03:43:29.115Z,5.37
2018-12-06T03:45:57.406Z,5.53
2018-12-06T03:48:25.700Z,5.15
2018-12-06T03:50:53.896Z,12.63
2018-12-06T03:53:22.172Z,6.30
2018-12-06T03:55:50.418Z,5.37
2018-12-06T03:58:18.829Z,8.98
2018-12-06T04:00:47.111Z,5.83
2018-12-06T04:03:15.298Z,6.00
2018-12-06T04:05:43.486Z,7.30
2018-12-06T04:08:11.710Z,7.65
2018-12-06T04:10:39.910Z,5.22
2018-12-06T04:13:08.143Z,5.80
2018-12-06T04:15:36.560Z,9.30
2018-12-06T04:18:04.859Z,6.80
2018-12-06T04:20:33.071Z,6.45
2018-12-06T04:23:01.274Z,4.85
2018-12-06T04:25:29.530Z,7.75
2018-12-06T04:27:57.737Z,7.22
2018-12-06T04:30:25.982Z,6.60
2018-12-06T04:32:55.460Z,7.53
2018-12-06T04:35:23.665Z,6.67
2018-12-06T04:37:52.164Z,6.00
2018-12-06T04:40:20.473Z,5.08
2018-12-06T04:42:48.602Z,7.40
2018-12-06T04:45:16.834Z,9.50
2018-12-06T04:47:45.164Z,5.70
2018-12-06T04:50:13.547Z,7.87
2018-12-06T04:52:41.842Z,7.45
2018-12-06T04:55:10.046Z,8.10
2018-12-06T04:57:38.391Z,9.05
2018-12-06T05:00:06.619Z,8.95
2018-12-06T05:02:34.868Z,6.90
2018-12-06T05:05:03.171Z,8.53
2018-12-06T05:07:31.667Z,10.53
2018-12-06T05:09:59.958Z,11.63
2018-12-06T05:12:28.427Z,9.45
2018-12-06T05:14:56.577Z,9.25
2018-12-06T05:17:26.542Z,11.45
2018-12-06T05:19:55.855Z,8.60
2018-12-06T05:22:24.306Z,12.68
2018-12-06T05:24:52.521Z,9.58
2018-12-06T05:27:20.693Z,8.43
2018-12-06T05:29:48.891Z,12.47
2018-12-06T05:32:17.207Z,11.15
2018-12-06T05:34:45.438Z,10.38
2018-12-06T05:37:13.648Z,8.30
2018-12-06T05:39:41.851Z,10.18
2018-12-06T05:42:10.095Z,6.53
2018-12-06T05:44:38.299Z,12.82
2018-12-06T05:47:06.543Z,9.60
2018-12-06T05:49:34.812Z,12.23
2018-12-06T05:52:03.068Z,9.50
2018-12-06T05:54:31.270Z,8.73
2018-12-06T05:56:59.417Z,8.90
2018-12-06T05:59:27.718Z,8.05
2018-12-06T06:01:55.987Z,6.15
2018-12-06T06:04:24.141Z,8.75
2018-12-06T06:06:52.376Z,8.43
2018-12-06T06:09:20.740Z,9.45
2018-12-06T06:11:49.050Z,7.55
2018-12-06T06:14:17.247Z,7.17
2018-12-06T06:16:45.489Z,8.40
2018-12-06T06:19:13.732Z,8.75
2018-12-06T06:21:41.893Z,6.47
2018-12-06T06:24:10.187Z,8.90
2018-12-06T06:26:38.422Z,6.50
2018-12-06T06:29:06.634Z,10.63
2018-12-06T06:31:35.034Z,10.58
2018-12-06T06:34:03.291Z,13.22
2018-12-06T06:36:31.474Z,11.85
2018-12-06T06:38:59.761Z,10.90
2018-12-06T06:41:27.960Z,7.75
2018-12-06T06:43:56.260Z,8.28
2018-12-06T06:46:24.423Z,8.70
2018-12-06T06:48:52.688Z,10.15
2018-12-06T06:51:20.911Z,8.23
2018-12-06T06:53:49.186Z,8.03
2018-12-06T06:56:17.379Z,6.15
2018-12-06T06:58:45.546Z,9.30
2018-12-06T07:01:13.726Z,8.28
2018-12-06T07:03:41.958Z,9.40
2018-12-06T07:08:45.004Z,7.65
2018-12-06T07:11:13.242Z,6.85
2018-12-06T07:13:41.646Z,14.80
2018-12-06T07:16:09.819Z,12.23
2018-12-06T07:18:38.075Z,8.95
2018-12-06T07:21:06.336Z,8.80
2018-12-06T07:23:34.812Z,8.33
2018-12-06T07:26:03.041Z,7.72
2018-12-06T07:28:31.318Z,9.75
2018-12-06T07:31:00.731Z,10.38
2018-12-06T07:33:28.951Z,8.05
2018-12-06T07:35:57.202Z,8.75
2018-12-06T07:38:25.492Z,9.33
2018-12-06T07:40:53.760Z,8.30
2018-12-06T07:43:22.993Z,6.65
2018-12-06T07:45:57.531Z,9.23
2018-12-06T07:48:30.616Z,6.67
2018-12-06T07:50:58.839Z,9.73
2018-12-06T07:53:27.270Z,11.33
2018-12-06T07:55:55.520Z,7.87
2018-12-06T07:58:24.004Z,8.65
2018-12-06T08:00:53.867Z,9.95
2018-12-06T08:03:22.451Z,8.85
2018-12-06T08:05:50.715Z,12.58
2018-12-06T08:08:19.631Z,15.05
2018-12-06T08:10:47.983Z,8.30
2018-12-06T08:13:17.918Z,9.73
2018-12-06T08:15:46.178Z,11.38
2018-12-06T08:18:14.493Z,9.20
2018-12-06T08:20:42.865Z,10.98
2018-12-06T08:23:11.511Z,10.93
2018-12-06T08:25:40.952Z,12.53
2018-12-06T08:28:09.215Z,10.35
2018-12-06T08:30:37.491Z,7.12
2018-12-06T08:33:05.769Z,8.35
2018-12-06T08:35:34.620Z,10.30
2018-12-06T08:38:03.689Z,9.60
2018-12-06T08:40:32.034Z,8.35
2018-12-06T08:43:00.236Z,9.90
2018-12-06T08:45:28.508Z,11.10
2018-12-06T08:47:56.673Z,8.15
2018-12-06T08:50:25.024Z,12.50
2018-12-06T08:52:53.267Z,9.85
2018-12-06T08:55:23.431Z,9.48
2018-12-06T08:57:54.196Z,8.53
2018-12-06T09:00:23.088Z,6.50
2018-12-06T09:02:51.374Z,8.83
2018-12-06T09:05:24.092Z,9.35
2018-12-06T09:07:52.721Z,8.15
2018-12-06T09:10:20.958Z,8.65
2018-12-06T09:12:50.892Z,13.22
2018-12-06T09:15:19.208Z,12.35
2018-12-06T09:17:48.192Z,10.30
2018-12-06T09:20:16.494Z,10.35
2018-12-06T09:22:44.703Z,10.15
2018-12-06T09:25:21.306Z,11.28
2018-12-06T09:27:48.522Z,11.15
2018-12-06T09:30:17.689Z,8.18
2018-12-06T09:32:45.937Z,8.33
2018-12-06T09:35:14.177Z,8.48
2018-12-06T09:37:42.449Z,8.48
2018-12-06T09:40:14.350Z,10.85
2018-12-06T09:42:42.695Z,9.73
2018-12-06T09:45:11.092Z,7.80
2018-12-06T09:47:43.831Z,10.70
2018-12-06T09:50:12.663Z,10.45
2018-12-06T09:52:40.846Z,7.17
2018-12-06T09:55:09.106Z,6.97
2018-12-06T09:57:37.384Z,11.65
2018-12-06T10:00:07.856Z,11.55
2018-12-06T10:02:40.529Z,8.80
2018-12-06T10:05:13.031Z,8.08
2018-12-06T10:07:41.239Z,10.15
2018-12-06T10:10:09.509Z,9.28
2018-12-06T10:12:39.827Z,9.88
2018-12-06T10:15:12.517Z,10.43
2018-12-06T10:17:45.918Z,7.95
2018-12-06T10:20:15.826Z,8.05
2018-12-06T10:22:48.507Z,11.38
2018-12-06T10:25:16.750Z,7.92
2018-12-06T10:27:44.998Z,8.35
2018-12-06T10:30:13.619Z,10.32
2018-12-06T10:32:41.861Z,8.58
2018-12-06T10:35:14.554Z,10.28
2018-12-06T10:37:42.852Z,9.50
2018-12-06T10:40:11.075Z,11.97
2018-12-06T10:42:41.974Z,10.08
2018-12-06T10:45:10.230Z,7.75
2018-12-06T10:47:38.446Z,10.82
2018-12-06T10:50:07.079Z,10.98
2018-12-06T10:52:35.638Z,12.28
2018-12-06T10:55:03.995Z,7.72
2018-12-06T10:57:33.367Z,7.10
2018-12-06T11:00:01.600Z,14.35
2018-12-06T11:04:38.735Z,6.85
2018-12-06T11:07:07.532Z,7.72
2018-12-06T11:09:35.823Z,9.88
2018-12-06T11:12:04.876Z,9.03
2018-12-06T11:14:33.759Z,8.90
2018-12-06T11:17:02.147Z,9.15
2018-12-06T11:19:30.366Z,10.15
2018-12-06T11:21:58.703Z,9.53
2018-12-06T11:24:26.933Z,8.43
2018-12-06T11:26:57.032Z,9.20
2018-12-06T11:29:26.003Z,8.25
2018-12-06T11:31:55.019Z,8.38
2018-12-06T11:34:23.293Z,9.68
2018-12-06T11:36:51.467Z,8.30
2018-12-06T11:39:23.535Z,10.32
2018-12-06T11:41:52.128Z,8.33
2018-12-06T11:44:21.781Z,10.75
2018-12-06T11:46:49.950Z,10.98
2018-12-06T11:49:19.295Z,11.40
2018-12-06T11:51:53.865Z,10.38
2018-12-06T11:54:22.056Z,9.68
2018-12-06T11:56:50.248Z,10.10
2018-12-06T11:59:18.536Z,14.07
2018-12-06T12:01:46.766Z,9.40
2018-12-06T12:04:14.911Z,10.18
2018-12-06T12:06:43.184Z,14.30
2018-12-06T12:09:11.424Z,11.65
2018-12-06T12:11:39.615Z,11.33
2018-12-06T12:14:07.868Z,11.95
2018-12-06T12:16:36.587Z,10.88
2018-12-06T12:19:04.920Z,12.78
2018-12-06T12:21:33.194Z,14.30
2018-12-06T12:24:01.531Z,9.88
2018-12-06T12:26:29.702Z,12.03
2018-12-06T12:28:57.866Z,9.00
2018-12-06T12:31:26.075Z,9.58
2018-12-06T12:33:54.227Z,10.85
2018-12-06T12:36:22.458Z,11.18
2018-12-06T12:38:50.695Z,9.70
2018-12-06T12:41:20.708Z,12.63
2018-12-06T12:43:48.994Z,14.00
2018-12-06T12:46:17.536Z,16.07
2018-12-06T12:48:45.702Z,11.55
2018-12-06T12:56:11.161Z,11.38
2018-12-06T12:58:39.411Z,10.93
2018-12-06T13:01:07.610Z,14.68
2018-12-06T13:03:35.854Z,14.03
2018-12-06T13:06:05.793Z,11.08
2018-12-06T13:08:34.110Z,11.73
2018-12-06T13:11:02.346Z,14.25
2018-12-06T13:13:31.447Z,14.78
2018-12-06T13:15:59.724Z,12.23
2018-12-06T13:18:28.050Z,9.63
2018-12-06T13:20:56.319Z,16.75
2018-12-06T13:23:24.688Z,15.08
2018-12-06T13:25:52.946Z,11.55
2018-12-06T13:28:21.298Z,12.45
2018-12-06T13:30:50.784Z,15.25
2018-12-06T13:33:19.014Z,12.73
2018-12-06T13:35:47.202Z,12.85
2018-12-06T13:38:15.689Z,13.08
2018-12-06T13:40:43.954Z,19.12
2018-12-06T13:43:12.090Z,13.18
2018-12-06T13:45:40.311Z,15.70
2018-12-06T13:48:08.523Z,14.33
2018-12-06T13:50:36.786Z,16.80
2018-12-06T13:53:05.437Z,16.40
2018-12-06T13:55:34.866Z,16.30
2018-12-06T13:58:03.190Z,17.17
2018-12-06T14:00:31.523Z,15.35
2018-12-06T14:03:00.100Z,14.20
2018-12-06T14:05:28.339Z,14.47
2018-12-06T14:07:56.567Z,18.73
2018-12-06T14:10:24.850Z,14.73
2018-12-06T14:12:53.382Z,16.67
2018-12-06T14:15:22.018Z,16.67
2018-12-06T14:17:51.067Z,19.05
2018-12-06T14:20:23.817Z,14.50
2018-12-06T14:22:52.009Z,13.40
2018-12-06T14:25:20.266Z,14.73
2018-12-06T14:27:48.428Z,14.68
2018-12-06T14:30:16.738Z,19.10
2018-12-06T14:32:44.932Z,15.38
2018-12-06T14:35:13.950Z,20.75
2018-12-06T14:37:42.178Z,14.15
2018-12-06T14:40:10.440Z,16.40
2018-12-06T14:42:38.797Z,16.42
2018-12-06T14:45:07.487Z,16.05
2018-12-06T14:47:35.860Z,17.50
2018-12-06T14:50:04.881Z,23.40
2018-12-06T14:52:33.106Z,19.65
2018-12-06T14:55:01.330Z,20.23
2018-12-06T14:57:31.214Z,20.77
2018-12-06T14:59:59.436Z,19.50
2018-12-06T15:02:27.694Z,23.20
2018-12-06T15:04:55.969Z,24.90
2018-12-06T15:07:24.277Z,26.37
2018-12-06T15:09:52.467Z,21.68
2018-12-06T15:12:20.681Z,24.45
2018-12-06T15:14:48.937Z,23.15
2018-12-06T15:17:17.183Z,27.30
2018-12-06T15:19:45.389Z,27.70
2018-12-06T15:22:13.650Z,27.07
2018-12-06T15:24:45.859Z,29.80
2018-12-06T15:27:14.673Z,31.45
2018-12-06T15:29:43.510Z,24.50
2018-12-06T15:32:11.779Z,28.92
2018-12-06T15:34:44.472Z,31.02
2018-12-06T15:37:13.848Z,31.77
2018-12-06T15:39:42.343Z,25.90
2018-12-06T15:42:10.590Z,29.07
2018-12-06T15:44:38.870Z,29.48
2018-12-06T15:47:07.112Z,25.27
2018-12-06T15:49:35.390Z,29.35
2018-12-06T15:52:03.622Z,33.88
2018-12-06T15:54:32.026Z,33.73
2018-12-06T15:57:00.270Z,26.17
2018-12-06T15:59:32.461Z,29.10
2018-12-06T16:02:00.706Z,34.20
2018-12-06T16:04:28.992Z,31.17
2018-12-06T16:06:57.503Z,26.68
2018-12-06T16:09:26.150Z,27.98
2018-12-06T16:11:54.394Z,27.82
2018-12-06T16:14:22.780Z,28.27
2018-12-06T16:16:51.095Z,30.35
2018-12-06T16:19:19.310Z,28.85
2018-12-06T16:21:47.814Z,34.33
2018-12-06T16:24:16.133Z,34.78
2018-12-06T16:26:44.378Z,30.20
2018-12-06T16:29:12.638Z,27.00
2018-12-06T16:31:45.335Z,26.95
2018-12-06T16:34:13.547Z,31.42
2018-12-06T16:36:46.535Z,30.52
2018-12-06T16:39:14.920Z,27.65
2018-12-06T16:41:43.560Z,26.82
2018-12-06T16:44:11.762Z,33.60
2018-12-06T16:46:40.043Z,33.25
2018-12-06T16:49:10.242Z,28.32
2018-12-06T16:51:38.687Z,32.42
2018-12-06T16:54:06.978Z,33.63
2018-12-06T16:56:35.288Z,32.17
2018-12-06T16:59:03.616Z,31.75
2018-12-06T17:01:31.903Z,34.27
2018-12-06T17:04:00.164Z,27.75
2018-12-06T17:06:28.336Z,30.25
2018-12-06T17:08:56.631Z,33.00
2018-12-06T17:11:24.804Z,32.80
2018-12-06T17:13:56.882Z,32.17
2018-12-06T17:16:25.267Z,35.60
2018-12-06T17:18:53.551Z,33.38
2018-12-06T17:21:21.743Z,25.27
2018-12-06T17:23:49.967Z,32.30
2018-12-06T17:26:18.332Z,29.82
2018-12-06T17:28:47.822Z,29.32
2018-12-06T17:31:16.819Z,30.80
2018-12-06T17:33:45.174Z,31.62
2018-12-06T17:36:15.019Z,34.23
2018-12-06T17:38:48.933Z,26.93
2018-12-06T17:41:17.429Z,30.65
2018-12-06T17:43:47.961Z,27.22
2018-12-06T17:46:16.537Z,32.03
2018-12-06T17:48:44.756Z,30.88
2018-12-06T17:51:13.035Z,28.60
2018-12-06T17:53:41.417Z,35.75
2018-12-06T17:56:09.876Z,34.48
2018-12-06T17:58:38.083Z,31.80
2018-12-06T18:01:06.622Z,29.95
2018-12-06T18:03:35.040Z,30.32
2018-12-06T18:06:03.432Z,20.85
2018-12-06T18:08:32.950Z,21.62
2018-12-06T18:11:01.378Z,28.67
2018-12-06T18:13:30.207Z,28.70
2018-12-06T18:15:58.482Z,30.17
2018-12-06T18:18:26.702Z,26.82
2018-12-06T18:20:55.273Z,24.90
2018-12-06T18:23:23.549Z,25.23
2018-12-06T18:25:56.040Z,29.67
2018-12-06T18:28:24.266Z,25.25
2018-12-06T18:30:52.992Z,24.77
2018-12-06T18:33:21.286Z,29.05
2018-12-06T18:35:49.586Z,24.72
2018-12-06T18:38:17.767Z,27.10
2018-12-06T18:40:46.204Z,25.05
2018-12-06T18:43:14.515Z,22.93
2018-12-06T18:45:42.821Z,21.25
2018-12-06T18:48:11.222Z,22.15
2018-12-06T18:50:39.650Z,25.72
2018-12-06T18:53:07.959Z,22.45
2018-12-06T18:55:36.275Z,23.47
2018-12-06T18:58:04.567Z,21.10
2018-12-06T19:00:32.787Z,19.27
2018-12-06T19:03:01.019Z,17.98
2018-12-06T19:05:30.026Z,22.65
2018-12-06T19:08:01.710Z,25.52
2018-12-06T19:10:29.888Z,24.35
2018-12-06T19:12:58.133Z,22.32
2018-12-06T19:15:26.399Z,34.03
2018-12-06T19:17:54.589Z,30.40
2018-12-06T19:20:24.892Z,23.15
2018-12-06T19:22:53.075Z,20.82
2018-12-06T19:25:21.334Z,24.80
2018-12-06T19:27:50.046Z,25.27
2018-12-06T19:30:18.262Z,30.80
2018-12-06T19:32:46.503Z,26.17
2018-12-06T19:35:14.778Z,24.25
2018-12-06T19:37:43.394Z,20.92
2018-12-06T19:40:11.636Z,24.37
2018-12-06T19:42:39.844Z,20.62
2018-12-06T19:45:08.617Z,24.55
2018-12-06T19:47:36.886Z,24.00
2018-12-06T19:50:05.865Z,25.68
2018-12-06T19:52:34.116Z,23.35
2018-12-06T19:55:02.400Z,24.37
2018-12-06T19:57:31.184Z,21.15
2018-12-06T19:59:59.443Z,21.70
2018-12-06T20:02:27.667Z,23.52
2018-12-06T20:04:55.900Z,22.50
2018-12-06T20:07:24.339Z,19.10
2018-12-06T20:09:54.436Z,19.75
2018-12-06T20:12:22.787Z,21.00
2018-12-06T20:14:51.063Z,21.17
2018-12-06T20:17:19.307Z,22.15
2018-12-06T20:19:47.935Z,19.87
2018-12-06T20:22:16.057Z,19.35
2018-12-06T20:24:44.381Z,22.55
2018-12-06T20:27:15.422Z,21.40
2018-12-06T20:29:46.348Z,25.25
2018-12-06T20:32:17.028Z,22.55
2018-12-06T20:34:45.214Z,23.25
2018-12-06T20:37:13.503Z,23.10
2018-12-06T20:39:42.157Z,20.48
2018-12-06T20:42:10.464Z,23.75
2018-12-06T20:44:38.650Z,24.27
2018-12-06T20:47:06.912Z,27.42
2018-12-06T20:49:35.176Z,24.47
2018-12-06T20:52:03.404Z,24.07
2018-12-06T20:54:31.674Z,21.93
2018-12-06T20:56:59.875Z,21.68
2018-12-06T20:59:28.194Z,20.35
2018-12-06T21:01:56.524Z,19.65
2018-12-06T21:04:24.780Z,21.50
2018-12-06T21:06:53.071Z,25.20
2018-12-06T21:09:21.329Z,23.25
2018-12-06T21:11:49.631Z,22.50
2018-12-06T21:14:22.096Z,26.23
2018-12-06T21:16:48.285Z,22.13
2018-12-06T21:19:16.551Z,24.45
2018-12-06T21:21:44.809Z,25.57
2018-12-06T21:24:13.071Z,22.50
2018-12-06T21:26:41.374Z,26.30
2018-12-06T21:29:09.647Z,25.27
2018-12-06T21:31:38.094Z,22.13
2018-12-06T21:34:06.383Z,24.63
2018-12-06T21:36:34.640Z,21.40
2018-12-06T21:39:02.868Z,20.90
2018-12-06T21:41:31.189Z,20.97
2018-12-06T21:43:59.468Z,21.57
2018-12-06T21:46:28.755Z,21.55
2018-12-06T21:48:56.949Z,21.35
2018-12-06T21:51:25.428Z,22.15
2018-12-06T21:53:53.784Z,23.15
2018-12-06T21:56:22.072Z,23.18
2018-12-06T21:58:50.335Z,22.70
2018-12-06T22:01:18.518Z,19.45
2018-12-06T22:03:46.764Z,22.98
2018-12-06T22:06:15.117Z,20.17
2018-12-06T22:08:43.422Z,20.02
2018-12-06T22:11:11.721Z,17.65
2018-12-06T22:13:39.968Z,20.77
2018-12-06T22:16:08.306Z,19.25
2018-12-06T22:18:37.149Z,17.17
2018-12-06T22:21:05.534Z,15.80
2018-12-06T22:23:33.780Z,15.13
2018-12-06T22:26:02.012Z,15.90
2018-12-06T22:28:34.085Z,14.73
2018-12-06T22:31:00.513Z,17.35
2018-12-06T22:33:28.780Z,16.52
2018-12-06T22:35:57.044Z,15.28
2018-12-06T22:38:25.442Z,17.10
2018-12-06T22:40:53.661Z,22.50
2018-12-06T22:43:21.942Z,20.40
2018-12-06T22:45:55.391Z,19.73
2018-12-06T22:48:23.721Z,22.80
2018-12-06T22:50:51.997Z,20.30
2018-12-06T22:53:20.230Z,18.27
2018-12-06T22:55:48.519Z,21.25
2018-12-06T22:58:16.741Z,18.92
2018-12-06T23:00:52.232Z,21.23
2018-12-06T23:03:22.211Z,21.65
2018-12-06T23:05:51.507Z,18.98
2018-12-06T23:08:20.172Z,21.65
2018-12-06T23:10:48.497Z,22.42
2018-12-06T23:13:16.730Z,19.25
2018-12-06T23:15:45.022Z,24.40
2018-12-06T23:18:13.290Z,21.40
2018-12-06T23:20:41.579Z,21.07
2018-12-06T23:23:09.971Z,18.55
2018-12-06T23:25:38.199Z,20.97
2018-12-06T23:28:06.469Z,22.42
2018-12-06T23:30:34.704Z,20.35
2018-12-06T23:33:02.943Z,18.15
2018-12-06T23:35:31.121Z,19.73
2018-12-06T23:37:59.399Z,19.10
2018-12-06T23:40:27.696Z,20.82
2018-12-06T23:42:55.903Z,19.82
2018-12-06T23:45:24.210Z,21.87
2018-12-06T23:47:52.500Z,20.72
2018-12-06T23:50:20.727Z,18.30
2018-12-06T23:52:48.918Z,15.98
2018-12-06T23:55:17.247Z,20.20
2018-12-06T23:57:45.542Z,17.45
